Time;durP1;ratioP1;P1;durP2;ratioP2;P2;SDS_P1;SDS_P2;PMS_P1;PMS_P2;Temp;Humidity;BMP_temperature;BMP_pressure;BME280_temperature;BME280_humidity;BME280_pressure;Samples;Min_cycle;Max_cycle;Signal;HPM_P1;HPM_P2
2021/12/27 00:00:10;;;;;;;17.77;6.15;;;;;;;5.28;48.57;97576.22;4503316;31;20171;-76
2021/12/27 00:02:38;;;;;;;20.35;8.27;;;;;;;6.65;43.87;97583.84;4489458;31;20525;-76
2021/12/27 00:05:06;;;;;;;16.02;6.50;;;;;;;5.80;46.84;97574.63;4503146;31;20084;-76
2021/12/27 00:07:33;;;;;;;17.35;7.10;;;;;;;6.26;44.88;97565.50;4503466;31;20128;-76
2021/12/27 00:10:00;;;;;;;20.17;7.62;;;;;;;6.08;44.36;97574.66;4503232;31;20682;-76
2021/12/27 00:12:28;;;;;;;19.62;8.25;;;;;;;6.31;44.75;97574.72;4502909;31;20163;-76
2021/12/27 00:14:55;;;;;;;17.75;7.22;;;;;;;6.20;44.10;97564.00;4503326;31;20147;-76
2021/12/27 00:17:22;;;;;;;20.70;7.35;;;;;;;7.16;41.56;97565.75;4503436;31;20084;-77
2021/12/27 00:19:49;;;;;;;19.12;7.43;;;;;;;4.81;47.28;97559.66;4488772;31;20150;-77
2021/12/27 00:22:16;;;;;;;17.25;7.40;;;;;;;5.06;47.45;97564.91;4503430;31;20159;-77
2021/12/27 00:24:46;;;;;;;15.85;6.45;;;;;;;5.74;46.22;97568.00;4503259;31;20126;-77
2021/12/27 00:27:17;;;;;;;17.42;7.30;;;;;;;4.51;45.46;97557.03;4502891;31;20119;-77
2021/12/27 00:29:45;;;;;;;15.30;5.80;;;;;;;4.82;45.44;97561.34;4503154;31;20144;-77
2021/12/27 00:32:12;;;;;;;19.85;6.87;;;;;;;5.46;43.56;97567.16;4488729;31;20108;-77
2021/12/27 00:34:39;;;;;;;20.60;7.82;;;;;;;5.22;44.29;97568.72;4503133;31;20444;-77
2021/12/27 00:37:07;;;;;;;16.90;6.78;;;;;;;5.37;43.75;97570.00;4489155;31;20110;-77
2021/12/27 00:39:35;;;;;;;16.05;6.00;;;;;;;5.36;45.43;97565.75;4502812;31;20164;-77
2021/12/27 00:42:03;;;;;;;16.67;7.25;;;;;;;5.06;44.95;97563.19;4503140;31;20091;-77
2021/12/27 00:44:30;;;;;;;16.58;6.28;;;;;;;5.14;45.23;97568.94;4503060;31;20505;-77
2021/12/27 00:46:57;;;;;;;24.12;7.45;;;;;;;4.74;46.42;97569.22;4502814;31;20088;-76
2021/12/27 00:49:24;;;;;;;12.15;4.20;;;;;;;3.84;46.07;97568.13;4502925;31;20468;-77
2021/12/27 00:51:51;;;;;;;13.45;4.57;;;;;;;3.87;45.84;97557.81;4503204;31;20458;-76
2021/12/27 00:54:19;;;;;;;19.27;5.93;;;;;;;4.11;43.77;97564.88;4502498;31;20126;-76
2021/12/27 00:56:46;;;;;;;13.43;4.97;;;;;;;4.01;44.28;97560.88;4503005;31;20107;-76
2021/12/27 00:59:12;;;;;;;13.45;5.80;;;;;;;4.11;45.03;97561.50;4502811;31;20457;-77
2021/12/27 01:01:40;;;;;;;18.65;5.50;;;;;;;5.19;42.73;97554.28;4502775;31;20151;-76
2021/12/27 01:04:08;;;;;;;14.65;4.85;;;;;;;4.98;43.76;97554.91;4502806;31;20084;-76
2021/12/27 01:06:35;;;;;;;15.10;5.85;;;;;;;4.27;42.84;97555.97;4502678;31;20489;-77
2021/12/27 01:09:03;;;;;;;16.12;6.37;;;;;;;4.07;45.11;97550.53;4502359;31;20126;-76
2021/12/27 01:11:56;;;;;;;15.13;6.18;;;;;;;4.71;42.69;97546.31;4502446;31;20143;-76
2021/12/27 01:14:39;;;;;;;14.25;5.95;;;;;;;4.37;43.20;97553.19;4502363;31;20113;-76
2021/12/27 01:17:06;;;;;;;19.48;5.62;;;;;;;4.39;43.38;97547.16;4502833;31;20152;-76
2021/12/27 01:19:33;;;;;;;14.75;5.75;;;;;;;3.89;45.60;97550.97;4502440;31;20506;-76
2021/12/27 01:22:00;;;;;;;14.07;4.87;;;;;;;3.71;43.62;97539.47;4502478;31;20411;-76
2021/12/27 01:24:27;;;;;;;15.10;5.87;;;;;;;3.83;44.02;97548.53;4502616;31;20095;-76
2021/12/27 01:26:54;;;;;;;14.13;5.37;;;;;;;3.28;45.03;97545.53;4488328;31;20434;-76
2021/12/27 01:29:20;;;;;;;;;;;;;;;3.82;44.88;97542.59;4502383;31;20447;-76
2021/12/27 01:31:48;;;;;;;14.40;5.40;;;;;;;3.75;45.47;97547.03;4502745;31;20047;-76
2021/12/27 01:34:15;;;;;;;11.98;4.90;;;;;;;3.72;44.61;97554.78;4488028;31;20150;-76
2021/12/27 01:36:42;;;;;;;15.50;5.57;;;;;;;4.21;45.21;97550.19;4502065;31;20084;-76
2021/12/27 01:39:09;;;;;;;17.02;6.20;;;;;;;3.53;46.63;97550.97;4502248;31;20167;-76
2021/12/27 01:41:36;;;;;;;;;;;;;;;3.50;47.12;97563.75;4502751;31;20119;-76
2021/12/27 01:44:03;;;;;;;13.07;4.55;;;;;;;3.40;44.93;97562.28;4501964;31;20050;-77
2021/12/27 01:46:31;;;;;;;11.88;3.60;;;;;;;3.76;43.24;97551.25;4502372;31;20154;-77
2021/12/27 01:48:59;;;;;;;12.85;4.28;;;;;;;3.70;38.36;97551.38;4502060;31;20496;-77
2021/12/27 01:51:29;;;;;;;11.05;4.03;;;;;;;4.17;36.72;97548.59;4501964;31;20145;-77
2021/12/27 01:53:57;;;;;;;6.68;2.25;;;;;;;3.43;39.06;97552.03;4502039;31;20110;-77
2021/12/27 01:56:25;;;;;;;10.73;3.40;;;;;;;3.08;37.94;97542.56;4487637;31;20115;-77
2021/12/27 01:58:54;;;;;;;13.13;4.87;;;;;;;3.80;37.68;97546.06;4502024;31;20164;-76
2021/12/27 02:01:21;;;;;;;8.25;2.80;;;;;;;3.53;39.44;97548.41;4502206;31;20110;-77
2021/12/27 02:03:50;;;;;;;8.13;2.85;;;;;;;3.16;38.68;97544.09;4487585;31;20100;-77
2021/12/27 02:06:18;;;;;;;9.73;3.12;;;;;;;3.04;38.14;97543.53;4502134;31;20102;-77
2021/12/27 02:08:45;;;;;;;9.02;3.67;;;;;;;3.22;37.35;97542.31;4487752;31;20114;-76
2021/12/27 02:11:15;;;;;;;8.18;2.12;;;;;;;3.22;37.98;97540.59;4487486;31;20176;-76
2021/12/27 02:13:44;;;;;;;13.60;4.20;;;;;;;3.10;38.23;97538.31;4501815;31;20119;-76
2021/12/27 02:16:21;;;;;;;9.18;3.35;;;;;;;3.25;37.52;97543.06;4501929;31;20449;-76
2021/12/27 02:18:49;;;;;;;12.80;3.80;;;;;;;4.04;36.19;97538.69;4502832;31;20525;-76
2021/12/27 02:21:17;;;;;;;9.35;3.05;;;;;;;3.93;35.71;97540.63;4504274;31;20143;-77
2021/12/27 02:23:44;;;;;;;11.05;3.60;;;;;;;3.90;35.60;97543.28;4504122;31;20147;-76
2021/12/27 02:26:10;;;;;;;;;;;;;;;3.65;36.71;97537.91;4504196;31;20440;-76
2021/12/27 02:28:38;;;;;;;11.32;3.92;;;;;;;4.09;37.14;97536.00;4504154;31;19979;-76
2021/12/27 02:31:06;;;;;;;12.18;3.85;;;;;;;4.18;36.37;97534.94;4504233;31;20151;-76
2021/12/27 02:33:36;;;;;;;11.90;3.87;;;;;;;4.83;35.45;97530.63;4503698;31;20127;-76
2021/12/27 02:36:05;;;;;;;11.68;3.92;;;;;;;4.20;37.20;97531.47;4504108;31;20148;-77
2021/12/27 02:38:34;;;;;;;11.88;4.07;;;;;;;4.58;36.29;97538.13;4503772;31;20560;-76
2021/12/27 02:41:02;;;;;;;10.95;4.00;;;;;;;4.32;36.60;97528.59;4504289;31;20152;-76
2021/12/27 02:43:31;;;;;;;10.77;3.55;;;;;;;4.34;37.52;97533.66;4489805;31;20102;-77
2021/12/27 02:46:04;;;;;;;11.60;4.15;;;;;;;4.45;36.69;97526.53;4503684;31;20163;-77
2021/12/27 02:48:38;;;;;;;12.25;4.43;;;;;;;4.41;36.81;97535.19;4504227;31;20104;-77
2021/12/27 02:51:05;;;;;;;11.70;4.50;;;;;;;3.78;38.99;97528.25;4490323;31;20155;-77
2021/12/27 02:53:32;;;;;;;13.68;4.55;;;;;;;3.64;38.48;97531.16;4503923;31;20087;-76
2021/12/27 02:56:02;;;;;;;15.50;4.87;;;;;;;4.06;38.56;97531.81;4504168;31;20539;-77
2021/12/27 02:58:29;;;;;;;14.15;4.62;;;;;;;4.26;37.73;97530.47;4503967;31;20118;-76
2021/12/27 03:00:57;;;;;;;;;;;;;;;4.05;38.70;97531.87;4503923;31;20182;-77
2021/12/27 03:03:24;;;;;;;10.88;3.03;;;;;;;4.32;37.94;97540.53;4504031;31;20040;-77
2021/12/27 03:05:52;;;;;;;14.20;4.95;;;;;;;5.19;37.28;97536.38;4503728;31;20147;-76
2021/12/27 03:08:20;;;;;;;11.90;4.80;;;;;;;3.83;40.19;97533.25;4503423;31;20148;-76
2021/12/27 03:10:50;;;;;;;12.10;4.28;;;;;;;4.77;37.99;97535.06;4503968;31;20112;-76
2021/12/27 03:13:24;;;;;;;16.52;4.87;;;;;;;4.28;39.57;97534.66;4503616;31;20158;-76
2021/12/27 03:15:53;;;;;;;14.65;5.22;;;;;;;4.23;39.84;97533.94;4503521;31;20084;-77
2021/12/27 03:18:20;;;;;;;16.40;5.15;;;;;;;4.27;39.02;97532.16;4476567;31;20661;-76
2021/12/27 03:20:48;;;;;;;14.60;4.95;;;;;;;4.27;39.60;97532.16;4489416;31;20100;-76
2021/12/27 03:23:16;;;;;;;13.95;5.40;;;;;;;4.05;39.73;97527.59;4503914;31;20100;-76
2021/12/27 03:25:43;;;;;;;10.38;4.62;;;;;;;4.44;40.91;97529.13;4503675;31;20080;-76
2021/12/27 03:28:10;;;;;;;14.50;4.90;;;;;;;3.51;38.84;97527.22;4503280;31;20116;-76
2021/12/27 03:30:37;;;;;;;13.70;4.60;;;;;;;4.48;37.32;97528.19;4503629;31;20151;-76
2021/12/27 03:33:05;;;;;;;13.80;4.50;;;;;;;4.79;36.53;97523.94;4503805;31;20099;-76
2021/12/27 03:35:38;;;;;;;14.50;4.85;;;;;;;3.97;38.31;97519.28;4503300;31;20168;-76
2021/12/27 03:38:09;;;;;;;16.10;4.37;;;;;;;4.28;38.49;97529.56;4503686;31;20092;-76
2021/12/27 03:40:37;;;;;;;13.38;4.95;;;;;;;4.55;36.49;97529.69;4503716;31;20154;-76
2021/12/27 03:43:05;;;;;;;14.13;4.80;;;;;;;4.04;37.89;97536.12;4489127;31;20087;-76
2021/12/27 03:45:35;;;;;;;16.17;5.35;;;;;;;4.31;38.37;97533.75;4503550;31;20119;-77
2021/12/27 03:48:04;;;;;;;13.68;5.53;;;;;;;4.97;37.28;97534.50;4489380;31;20725;-76
2021/12/27 03:50:31;;;;;;;12.40;4.93;;;;;;;5.25;36.84;97535.38;4503217;31;20087;-77
2021/12/27 03:52:58;;;;;;;15.00;5.75;;;;;;;5.05;36.38;97530.00;4503524;31;20174;-77
2021/12/27 03:55:26;;;;;;;16.00;5.95;;;;;;;5.63;35.81;97531.63;4489192;31;20236;-77
2021/12/27 03:58:06;;;;;;;14.15;5.32;;;;;;;4.79;37.79;97530.75;4503155;31;20130;-76
2021/12/27 04:00:47;;;;;;;13.55;5.10;;;;;;;4.59;37.61;97526.19;4503542;31;20527;-76
2021/12/27 04:03:16;;;;;;;15.93;5.47;;;;;;;5.11;37.77;97528.12;4503212;31;20084;-76
2021/12/27 04:05:43;;;;;;;11.65;4.45;;;;;;;4.88;37.65;97521.09;4489197;31;20106;-76
2021/12/27 04:08:10;;;;;;;16.55;4.70;;;;;;;5.32;35.33;97533.50;4503359;31;20180;-76
2021/12/27 04:10:39;;;;;;;13.68;5.30;;;;;;;5.00;36.87;97521.63;4488877;31;20117;-76
2021/12/27 04:13:09;;;;;;;15.13;5.40;;;;;;;5.01;37.05;97524.16;4503215;31;20080;-76
2021/12/27 04:15:37;;;;;;;14.93;4.97;;;;;;;4.41;37.89;97524.13;4503277;31;20118;-76
2021/12/27 04:18:05;;;;;;;14.30;4.72;;;;;;;4.12;37.70;97518.03;4488854;31;20466;-76
2021/12/27 04:20:32;;;;;;;9.68;2.87;;;;;;;5.31;35.24;97522.38;4503244;31;20174;-76
2021/12/27 04:22:58;;;;;;;14.35;5.57;;;;;;;4.82;34.98;97520.44;4503305;31;20092;-76
2021/12/27 04:25:25;;;;;;;12.45;4.62;;;;;;;4.18;37.54;97527.28;4502872;31;20092;-76
2021/12/27 04:27:52;;;;;;;;;;;;;;;4.29;38.21;97522.72;4503549;31;20268;-76
2021/12/27 04:30:20;;;;;;;11.48;4.25;;;;;;;4.67;37.06;97529.34;4503409;31;20318;-76
2021/12/27 04:32:47;;;;;;;14.48;4.10;;;;;;;3.91;38.28;97529.63;4488767;31;20083;-77
2021/12/27 04:35:15;;;;;;;11.90;4.10;;;;;;;4.81;34.72;97529.84;4503035;31;20099;-76
2021/12/27 04:37:43;;;;;;;14.35;4.75;;;;;;;3.25;37.43;97532.03;4502797;31;20096;-76
2021/12/27 04:40:11;;;;;;;12.10;4.15;;;;;;;4.89;35.22;97535.56;4503106;31;20471;-76
2021/12/27 04:42:40;;;;;;;12.98;5.00;;;;;;;4.82;34.17;97531.50;4502745;31;20489;-76
2021/12/27 04:45:08;;;;;;;15.32;5.15;;;;;;;4.55;34.16;97527.97;4502803;31;20438;-76
2021/12/27 04:47:35;;;;;;;13.68;5.05;;;;;;;4.85;33.38;97520.34;4503125;31;20563;-76
2021/12/27 04:50:03;;;;;;;12.27;4.22;;;;;;;5.15;33.58;97527.12;4502935;31;20110;-76
2021/12/27 04:52:30;;;;;;;10.50;3.60;;;;;;;5.53;32.54;97527.72;4502769;31;20098;-76
2021/12/27 04:54:56;;;;;;;13.77;4.62;;;;;;;5.67;32.59;97529.84;4502911;31;20102;-76
2021/12/27 04:57:23;;;;;;;10.05;3.90;;;;;;;5.74;31.65;97528.75;4503066;31;20112;-76
2021/12/27 04:59:50;;;;;;;14.48;5.07;;;;;;;4.79;33.50;97525.66;4502715;31;20092;-76
2021/12/27 05:02:17;;;;;;;10.77;4.10;;;;;;;4.49;33.96;97527.31;4502941;31;20455;-76
2021/12/27 05:04:44;;;;;;;9.88;3.97;;;;;;;4.49;32.92;97534.97;4502922;31;20092;-76
2021/12/27 05:07:11;;;;;;;10.02;3.45;;;;;;;4.46;33.88;97535.03;4502717;31;20100;-76
2021/12/27 05:09:38;;;;;;;;;;;;;;;3.98;33.47;97528.62;4503167;31;20106;-76
2021/12/27 05:12:06;;;;;;;14.02;4.55;;;;;;;3.67;34.61;97531.06;4502788;31;20026;-76
2021/12/27 05:14:33;;;;;;;14.10;4.53;;;;;;;3.94;34.95;97523.63;4502372;31;20138;-76
2021/12/27 05:17:00;;;;;;;13.70;4.37;;;;;;;4.33;35.06;97529.41;4502971;31;20160;-76
2021/12/27 05:19:27;;;;;;;12.55;4.20;;;;;;;4.31;35.59;97529.47;4502600;31;20108;-76
2021/12/27 05:21:54;;;;;;;13.32;5.35;;;;;;;5.06;32.26;97534.25;4502509;31;20147;-76
2021/12/27 05:24:22;;;;;;;11.12;4.40;;;;;;;5.67;31.49;97527.28;4502686;31;20094;-76
2021/12/27 05:26:52;;;;;;;13.40;4.93;;;;;;;5.43;32.18;97528.88;4502336;31;20116;-77
2021/12/27 05:29:19;;;;;;;11.20;4.78;;;;;;;5.49;30.88;97521.84;4502497;31;20139;-77
2021/12/27 05:31:46;;;;;;;12.90;4.45;;;;;;;4.85;32.10;97521.19;4502708;31;20816;-77
2021/12/27 05:34:14;;;;;;;13.15;4.55;;;;;;;5.30;31.75;97518.16;4502213;31;20103;-77
2021/12/27 05:36:42;;;;;;;17.87;5.00;;;;;;;4.64;33.16;97514.13;4488706;31;20100;-77
2021/12/27 05:39:10;;;;;;;12.70;3.90;;;;;;;5.00;31.67;97516.50;4502497;31;20147;-77
2021/12/27 05:41:37;;;;;;;13.85;4.68;;;;;;;5.39;31.58;97517.88;4502223;31;20139;-77
2021/12/27 05:44:04;;;;;;;13.48;3.78;;;;;;;4.04;34.67;97515.72;4502317;31;20438;-77
2021/12/27 05:46:31;;;;;;;13.27;4.55;;;;;;;4.81;33.25;97511.09;4502518;31;20489;-77
2021/12/27 05:48:59;;;;;;;11.38;3.95;;;;;;;3.34;35.99;97512.28;4501922;31;20088;-77
2021/12/27 05:51:25;;;;;;;13.90;4.78;;;;;;;4.04;34.80;97513.16;4502351;31;20084;-77
2021/12/27 05:53:52;;;;;;;13.05;4.53;;;;;;;4.29;34.34;97505.69;4503456;31;20430;-77
2021/12/27 05:56:19;;;;;;;;;;;;;;;4.04;35.45;97500.37;4504562;31;20145;-76
2021/12/27 05:58:46;;;;;;;12.35;4.18;;;;;;;3.84;34.01;97499.22;4504467;31;20023;-76
2021/12/27 06:01:14;;;;;;;17.20;4.87;;;;;;;4.83;32.38;97504.22;4504426;31;20179;-76
2021/12/27 06:03:41;;;;;;;15.50;4.72;;;;;;;4.94;33.03;97500.47;4504002;31;20366;-76
2021/12/27 06:06:09;;;;;;;11.85;4.37;;;;;;;4.72;33.91;97501.13;4504500;31;20541;-76
2021/12/27 06:08:36;;;;;;;14.70;4.72;;;;;;;4.46;33.13;97487.34;4504317;31;20159;-76
2021/12/27 06:11:03;;;;;;;16.10;4.90;;;;;;;4.75;33.46;97503.59;4504070;31;20498;-77
2021/12/27 06:13:35;;;;;;;13.32;4.20;;;;;;;5.32;32.88;97508.75;4504186;31;20106;-77
2021/12/27 06:16:01;;;;;;;14.50;5.37;;;;;;;5.85;31.06;97503.66;4504034;31;20147;-77
2021/12/27 06:18:29;;;;;;;12.27;4.53;;;;;;;5.77;32.69;97511.59;4504305;31;20096;-77
2021/12/27 06:20:56;;;;;;;13.27;4.60;;;;;;;5.89;32.83;97509.50;4504312;31;20084;-76
2021/12/27 06:23:23;;;;;;;13.20;4.50;;;;;;;5.58;32.28;97509.66;4489789;31;20148;-77
2021/12/27 06:25:49;;;;;;;12.52;4.75;;;;;;;5.48;32.33;97496.31;4504184;31;20128;-77
2021/12/27 06:28:17;;;;;;;;;;;;;;;6.18;30.75;97488.09;4504672;31;20159;-77
2021/12/27 06:30:46;;;;;;;13.15;5.00;;;;;;;5.17;33.73;97502.34;4504594;31;20023;-77
2021/12/27 06:33:13;;;;;;;14.07;5.03;;;;;;;6.31;32.06;97500.44;4504724;31;20079;-76
2021/12/27 06:35:40;;;;;;;12.37;4.60;;;;;;;6.42;32.02;97499.22;4504016;31;20415;-76
2021/12/27 06:38:08;;;;;;;13.23;4.90;;;;;;;6.34;31.68;97496.91;4503846;31;20139;-76
2021/12/27 06:40:35;;;;;;;14.05;5.37;;;;;;;6.73;30.60;97504.09;4504108;31;20107;-76
2021/12/27 06:43:02;;;;;;;13.27;5.40;;;;;;;6.41;31.31;97497.56;4504123;31;20106;-77
2021/12/27 06:45:29;;;;;;;17.37;5.78;;;;;;;6.54;30.91;97498.78;4503747;31;20094;-77
2021/12/27 06:47:56;;;;;;;12.60;4.62;;;;;;;5.78;32.62;97497.91;4503851;31;20064;-77
2021/12/27 06:50:23;;;;;;;13.73;5.65;;;;;;;5.87;32.69;97503.63;4504198;31;20084;-77
2021/12/27 06:52:50;;;;;;;13.25;5.25;;;;;;;6.31;32.59;97500.44;4503653;31;20099;-77
2021/12/27 06:55:17;;;;;;;13.95;5.30;;;;;;;5.63;33.92;97503.50;4503892;31;20116;-77
2021/12/27 06:57:44;;;;;;;15.63;5.40;;;;;;;6.03;33.61;97505.62;4503890;31;20158;-77
2021/12/27 07:00:13;;;;;;;14.18;5.68;;;;;;;6.88;32.29;97509.50;4489301;31;20106;-77
2021/12/27 07:02:40;;;;;;;17.12;6.00;;;;;;;6.67;33.76;97508.53;4503957;31;20103;-77
2021/12/27 07:05:08;;;;;;;12.65;4.97;;;;;;;6.91;33.46;97500.84;4503229;31;20156;-77
2021/12/27 07:07:35;;;;;;;14.87;5.70;;;;;;;8.03;30.94;97499.91;4503921;31;20104;-77
2021/12/27 07:10:07;;;;;;;15.45;5.65;;;;;;;7.24;31.93;97491.91;4503765;31;20154;-77
2021/12/27 07:12:34;;;;;;;14.73;5.25;;;;;;;7.36;32.15;97485.47;4503390;31;20098;-77
2021/12/27 07:15:02;;;;;;;17.15;5.43;;;;;;;6.96;32.65;97484.41;4503709;31;20249;-77
2021/12/27 07:17:29;;;;;;;13.32;5.60;;;;;;;6.14;34.03;97481.38;4503908;31;20103;-77
2021/12/27 07:19:56;;;;;;;15.13;6.00;;;;;;;6.79;33.62;97483.34;4503406;31;20156;-77
2021/12/27 07:22:23;;;;;;;16.50;5.60;;;;;;;7.09;33.57;97482.22;4503923;31;20155;-77
2021/12/27 07:24:50;;;;;;;17.95;5.45;;;;;;;7.00;33.26;97491.97;4503795;31;20155;-77
2021/12/27 07:27:16;;;;;;;;;;;;;;;7.49;32.14;97498.66;4503795;31;20139;-77
2021/12/27 07:29:43;;;;;;;14.82;5.57;;;;;;;6.27;33.64;97495.44;4503692;31;19979;-77
2021/12/27 07:32:10;;;;;;;13.02;5.10;;;;;;;5.83;32.60;97495.16;4503902;31;20098;-77
2021/12/27 07:34:38;;;;;;;15.05;5.12;;;;;;;6.66;32.48;97506.88;4503384;31;20088;-77
2021/12/27 07:37:05;;;;;;;17.15;5.65;;;;;;;7.66;31.21;97508.28;4503791;31;20132;-77
2021/12/27 07:39:32;;;;;;;14.40;5.25;;;;;;;7.29;32.57;97498.59;4503638;31;20170;-77
2021/12/27 07:41:59;;;;;;;16.62;5.43;;;;;;;7.73;28.79;97497.69;4503449;31;20132;-77
2021/12/27 07:44:26;;;;;;;13.95;5.22;;;;;;;6.89;29.60;97500.91;4503718;31;20147;-77
2021/12/27 07:46:53;;;;;;;15.35;5.15;;;;;;;8.18;27.31;97501.00;4503688;31;20143;-77
2021/12/27 07:49:20;;;;;;;16.17;5.30;;;;;;;6.32;30.74;97499.53;4503218;31;20758;-77
2021/12/27 07:51:48;;;;;;;13.50;5.37;;;;;;;5.45;33.49;97489.56;4503675;31;20075;-77
2021/12/27 07:54:15;;;;;;;16.35;5.85;;;;;;;6.18;31.96;97498.34;4489005;31;20156;-77
2021/12/27 07:56:42;;;;;;;17.80;6.70;;;;;;;7.23;30.61;97494.50;4503612;31;20088;-77
2021/12/27 07:59:10;;;;;;;17.27;6.28;;;;;;;7.19;29.67;97488.66;4503407;31;20174;-77
2021/12/27 08:01:38;;;;;;;14.05;5.53;;;;;;;6.88;31.01;97491.53;4503437;31;20124;-77
2021/12/27 08:04:06;;;;;;;13.62;5.22;;;;;;;6.61;30.17;97498.53;4503349;31;20430;-77
2021/12/27 08:06:33;;;;;;;15.98;6.68;;;;;;;7.91;28.23;97497.84;4503662;31;20104;-77
2021/12/27 08:09:00;;;;;;;15.65;6.50;;;;;;;8.36;28.32;97505.41;4502948;31;20092;-77
2021/12/27 08:11:27;;;;;;;15.95;6.53;;;;;;;7.75;27.91;97506.16;4489105;31;20580;-77
2021/12/27 08:13:54;;;;;;;14.57;6.07;;;;;;;8.61;26.92;97506.03;4503514;31;20168;-77
2021/12/27 08:16:24;;;;;;;19.73;7.32;;;;;;;8.01;27.02;97517.97;4502113;31;20144;-77
2021/12/27 08:18:52;;;;;;;17.62;7.18;;;;;;;8.39;26.33;97511.25;4503422;31;20143;-77
2021/12/27 08:21:20;;;;;;;18.12;7.22;;;;;;;8.45;27.19;97515.28;4503467;31;20102;-77
2021/12/27 08:23:47;;;;;;;21.60;8.20;;;;;;;8.46;27.19;97511.81;4502913;31;20104;-77
2021/12/27 08:26:15;;;;;;;19.55;7.35;;;;;;;8.36;26.49;97513.94;4503426;31;20553;-77
2021/12/27 08:28:43;;;;;;;25.08;8.20;;;;;;;8.58;26.58;97515.59;4503257;31;20096;-77
2021/12/27 08:31:10;;;;;;;23.73;8.52;;;;;;;9.26;26.07;97524.59;4502963;31;20107;-77
2021/12/27 08:33:37;;;;;;;19.73;7.62;;;;;;;9.03;26.21;97517.03;4503380;31;20462;-77
2021/12/27 08:36:05;;;;;;;18.20;7.40;;;;;;;8.81;27.25;97517.16;4503261;31;20444;-77
2021/12/27 08:38:32;;;;;;;18.02;7.40;;;;;;;8.07;28.21;97516.84;4502891;31;20158;-77
2021/12/27 08:40:59;;;;;;;16.83;6.65;;;;;;;8.91;27.67;97521.84;4503334;31;20114;-77
2021/12/27 08:43:26;;;;;;;24.98;10.02;;;;;;;9.32;28.14;97520.88;4503096;31;20425;-77
2021/12/27 08:45:56;;;;;;;17.92;6.85;;;;;;;8.49;28.57;97514.25;4503304;31;20106;-77
2021/12/27 08:48:23;;;;;;;17.30;6.47;;;;;;;8.05;29.70;97524.63;4503170;31;20155;-77
2021/12/27 08:50:50;;;;;;;16.37;6.37;;;;;;;8.16;29.68;97521.63;4502953;31;20129;-77
2021/12/27 08:53:17;;;;;;;18.83;7.45;;;;;;;8.00;29.69;97520.59;4503231;31;20490;-77
2021/12/27 08:55:44;;;;;;;22.73;7.50;;;;;;;8.14;29.21;97515.72;4488911;31;20529;-77
2021/12/27 08:58:11;;;;;;;17.27;6.40;;;;;;;7.38;29.87;97518.78;4502723;31;20150;-76
2021/12/27 09:00:38;;;;;;;16.80;6.10;;;;;;;7.12;29.80;97515.44;4503046;31;20071;-76
2021/12/27 09:03:05;;;;;;;18.60;6.57;;;;;;;7.02;29.30;97509.00;4503105;31;20123;-76
2021/12/27 09:05:32;;;;;;;19.60;6.50;;;;;;;7.44;28.35;97514.25;4502718;31;20164;-76
2021/12/27 09:07:59;;;;;;;;;;;;;;;7.16;29.59;97511.88;4503312;31;20174;-76
2021/12/27 09:10:26;;;;;;;17.25;6.20;;;;;;;7.48;28.55;97518.34;4488768;31;19967;-77
2021/12/27 09:12:54;;;;;;;17.25;6.43;;;;;;;7.87;27.49;97511.69;4502335;31;20151;-77
2021/12/27 09:15:21;;;;;;;14.50;5.68;;;;;;;7.93;28.74;97508.87;4502771;31;20099;-76
2021/12/27 09:17:48;;;;;;;16.17;5.65;;;;;;;6.77;29.64;97516.75;4502756;31;20512;-76
2021/12/27 09:20:16;;;;;;;15.18;5.82;;;;;;;7.72;27.65;97508.00;4502630;31;20088;-76
2021/12/27 09:22:43;;;;;;;14.18;5.37;;;;;;;7.17;27.50;97516.13;4502795;31;20433;-76
2021/12/27 09:25:10;;;;;;;16.20;6.35;;;;;;;7.84;27.38;97508.34;4502628;31;20156;-76
2021/12/27 09:27:37;;;;;;;14.35;5.90;;;;;;;7.79;27.21;97510.28;4503320;31;20151;-77
2021/12/27 09:30:05;;;;;;;17.37;5.82;;;;;;;6.55;30.63;97510.72;4504641;31;20104;-76
2021/12/27 09:32:32;;;;;;;16.90;5.95;;;;;;;6.43;31.11;97509.41;4504269;31;20092;-76
2021/12/27 09:34:59;;;;;;;16.02;6.53;;;;;;;5.99;32.50;97518.59;4504558;31;20096;-76
2021/12/27 09:37:27;;;;;;;15.75;5.82;;;;;;;6.14;32.28;97520.66;4504629;31;20103;-76
2021/12/27 09:39:53;;;;;;;16.85;6.43;;;;;;;7.21;30.32;97522.81;4504177;31;20080;-77
2021/12/27 09:42:26;;;;;;;17.98;5.75;;;;;;;6.99;29.90;97519.34;4504608;31;20154;-77
2021/12/27 09:44:55;;;;;;;15.82;6.45;;;;;;;6.80;30.49;97521.75;4504629;31;20110;-76
2021/12/27 09:47:23;;;;;;;16.12;6.18;;;;;;;6.58;30.05;97515.72;4504155;31;20128;-76
2021/12/27 09:50:12;;;;;;;18.83;6.45;;;;;;;7.34;29.05;97518.06;4504658;31;20105;-76
2021/12/27 09:52:40;;;;;;;15.75;5.70;;;;;;;6.99;29.50;97513.41;4504531;31;20109;-76
2021/12/27 09:55:07;;;;;;;16.27;5.78;;;;;;;7.50;29.03;97495.19;4503968;31;20155;-77
2021/12/27 09:57:34;;;;;;;15.18;5.20;;;;;;;7.35;28.83;97493.22;4504533;31;20490;-77
2021/12/27 10:00:01;;;;;;;13.38;5.20;;;;;;;6.82;29.58;97494.34;4504359;31;20151;-77
2021/12/27 10:02:28;;;;;;;14.68;5.53;;;;;;;6.44;29.31;97490.59;4504124;31;20103;-76
2021/12/27 10:04:55;;;;;;;16.62;6.03;;;;;;;6.37;31.03;97496.81;4504548;31;20114;-76
2021/12/27 10:07:23;;;;;;;16.92;7.20;;;;;;;6.82;30.42;97508.91;4504679;31;20072;-76
2021/12/27 10:09:58;;;;;;;16.00;6.37;;;;;;;8.22;27.10;97507.69;4504664;31;20127;-77
2021/12/27 10:12:26;;;;;;;16.27;5.90;;;;;;;8.04;27.60;97499.84;4504534;31;20464;-76
2021/12/27 10:14:55;;;;;;;19.33;6.30;;;;;;;7.49;28.49;97496.94;4504071;31;20113;-77
2021/12/27 10:17:23;;;;;;;16.92;5.75;;;;;;;8.11;28.06;97503.00;4504332;31;20452;-77
2021/12/27 10:19:51;;;;;;;16.52;6.22;;;;;;;8.09;27.44;97497.09;4504111;31;20099;-77
2021/12/27 10:22:19;;;;;;;17.27;6.50;;;;;;;8.16;27.00;97501.06;4503890;31;20110;-76
2021/12/27 10:24:49;;;;;;;16.35;6.65;;;;;;;8.19;27.74;97495.81;4489842;31;20167;-77
2021/12/27 10:27:18;;;;;;;15.10;5.97;;;;;;;9.23;26.70;97493.81;4504299;31;20127;-77
2021/12/27 10:29:45;;;;;;;17.67;6.55;;;;;;;9.46;26.60;97485.87;4503876;31;20403;-77
2021/12/27 10:32:16;;;;;;;18.92;7.60;;;;;;;8.78;27.30;97494.16;4504189;31;20386;-76
2021/12/27 10:34:48;;;;;;;16.77;7.30;;;;;;;9.43;26.92;97495.47;4504038;31;20104;-77
2021/12/27 10:37:30;;;;;;;18.00;7.80;;;;;;;10.45;26.09;97505.12;4489405;31;20119;-76
2021/12/27 10:40:07;;;;;;;16.60;7.43;;;;;;;10.46;26.80;97491.31;4503432;31;20107;-77
2021/12/27 10:42:39;;;;;;;17.35;7.55;;;;;;;10.70;26.23;97497.78;4503716;31;20092;-77
2021/12/27 10:45:07;;;;;;;20.23;8.27;;;;;;;10.80;25.54;97496.41;4504005;31;20112;-77
2021/12/27 10:47:36;;;;;;;17.23;7.55;;;;;;;11.31;24.77;97491.97;4503978;31;20166;-77
2021/12/27 10:50:18;;;;;;;19.08;7.80;;;;;;;11.09;24.96;97488.88;4503549;31;20105;-77
2021/12/27 10:52:58;;;;;;;21.40;8.07;;;;;;;11.32;24.71;97485.03;4504031;31;20088;-77
2021/12/27 10:55:46;;;;;;;16.65;7.55;;;;;;;10.45;25.52;97485.34;4503847;31;20099;-77
2021/12/27 10:58:23;;;;;;;;;;;;;;;10.72;24.92;97485.63;4503838;31;20087;-77
2021/12/27 11:00:57;;;;;;;17.62;7.55;;;;;;;10.59;24.91;97475.12;4504067;31;19978;-77
2021/12/27 11:03:29;;;;;;;18.42;7.50;;;;;;;10.29;24.85;97476.69;4503960;31;20141;-77
2021/12/27 11:05:57;;;;;;;17.58;7.37;;;;;;;11.14;24.12;97472.19;4503571;31;20087;-77
2021/12/27 11:08:26;;;;;;;16.70;7.00;;;;;;;11.36;23.63;97465.88;4503743;31;20172;-77
2021/12/27 11:10:54;;;;;;;20.83;7.15;;;;;;;11.79;22.74;97465.16;4503612;31;20114;-77
2021/12/27 11:13:22;;;;;;;18.60;7.35;;;;;;;11.05;22.99;97464.13;4503630;31;20096;-77
2021/12/27 11:15:49;;;;;;;16.00;7.05;;;;;;;11.21;22.41;97460.63;4503664;31;20159;-77
2021/12/27 11:18:16;;;;;;;15.98;7.40;;;;;;;11.74;22.48;97449.06;4503377;31;20102;-77
2021/12/27 11:20:47;;;;;;;17.80;6.80;;;;;;;10.48;23.83;97443.06;4503784;31;20071;-77
2021/12/27 11:23:15;;;;;;;15.60;6.70;;;;;;;11.19;22.92;97441.00;4503800;31;20140;-77
2021/12/27 11:25:44;;;;;;;15.73;6.00;;;;;;;10.15;24.71;97438.69;4503260;31;20092;-77
2021/12/27 11:28:30;;;;;;;20.05;7.55;;;;;;;9.70;25.19;97434.94;4489358;31;20080;-77
2021/12/27 11:31:07;;;;;;;17.85;7.10;;;;;;;8.27;27.11;97426.91;4503779;31;20075;-77
2021/12/27 11:33:53;;;;;;;17.77;7.45;;;;;;;8.10;27.89;97429.38;4503345;31;20157;-77
2021/12/27 11:36:32;;;;;;;19.90;7.72;;;;;;;9.43;25.81;97421.62;4503698;31;20143;-76
2021/12/27 11:39:15;;;;;;;21.60;8.30;;;;;;;9.38;26.38;97420.19;4503368;31;20445;-76
2021/12/27 11:41:43;;;;;;;18.27;7.85;;;;;;;8.72;27.63;97418.13;4503811;31;20204;-76